sensor_id;sensor_type;location;lat;lon;timestamp;P1;durP1;ratioP1;P2;durP2;ratioP2
21979;SDS011;11154;48.558;9.234;2022-08-21T00:01:38;2.22;;;1.30;;
21979;SDS011;11154;48.558;9.234;2022-08-21T00:03:41;2.00;;;1.48;;
21979;SDS011;11154;48.558;9.234;2022-08-21T00:05:44;2.97;;;1.30;;
21979;SDS011;11154;48.558;9.234;2022-08-21T00:07:50;1.67;;;1.40;;
21979;SDS011;11154;48.558;9.234;2022-08-21T00:09:52;1.85;;;1.27;;
21979;SDS011;11154;48.558;9.234;2022-08-21T00:11:53;1.83;;;1.27;;
21979;SDS011;11154;48.558;9.234;2022-08-21T00:13:55;2.83;;;1.38;;
21979;SDS011;11154;48.558;9.234;2022-08-21T00:15:57;2.85;;;1.63;;
21979;SDS011;11154;48.558;9.234;2022-08-21T00:17:59;1.40;;;1.30;;
21979;SDS011;11154;48.558;9.234;2022-08-21T00:20:02;2.15;;;1.55;;
21979;SDS011;11154;48.558;9.234;2022-08-21T00:22:05;2.53;;;1.52;;
21979;SDS011;11154;48.558;9.234;2022-08-21T00:24:07;3.08;;;1.40;;
21979;SDS011;11154;48.558;9.234;2022-08-21T00:26:08;2.60;;;1.48;;
21979;SDS011;11154;48.558;9.234;2022-08-21T00:28:11;2.83;;;1.83;;
21979;SDS011;11154;48.558;9.234;2022-08-21T00:30:14;2.10;;;1.27;;
21979;SDS011;11154;48.558;9.234;2022-08-21T00:32:19;3.22;;;1.50;;
21979;SDS011;11154;48.558;9.234;2022-08-21T00:34:22;1.77;;;1.30;;
21979;SDS011;11154;48.558;9.234;2022-08-21T00:36:25;2.83;;;1.45;;
21979;SDS011;11154;48.558;9.234;2022-08-21T00:38:27;2.25;;;1.80;;
21979;SDS011;11154;48.558;9.234;2022-08-21T00:40:29;2.13;;;1.92;;
21979;SDS011;11154;48.558;9.234;2022-08-21T00:42:33;2.20;;;1.75;;
21979;SDS011;11154;48.558;9.234;2022-08-21T00:44:35;2.47;;;1.50;;
21979;SDS011;11154;48.558;9.234;2022-08-21T00:46:37;2.17;;;1.60;;
21979;SDS011;11154;48.558;9.234;2022-08-21T00:48:40;4.63;;;1.92;;
21979;SDS011;11154;48.558;9.234;2022-08-21T00:50:43;2.42;;;1.50;;
21979;SDS011;11154;48.558;9.234;2022-08-21T00:52:51;2.05;;;1.42;;
21979;SDS011;11154;48.558;9.234;2022-08-21T00:54:53;2.30;;;1.60;;
21979;SDS011;11154;48.558;9.234;2022-08-21T00:56:57;3.40;;;1.33;;
21979;SDS011;11154;48.558;9.234;2022-08-21T00:59:03;2.08;;;1.50;;
21979;SDS011;11154;48.558;9.234;2022-08-21T01:01:06;2.25;;;1.50;;
21979;SDS011;11154;48.558;9.234;2022-08-21T01:03:09;1.48;;;1.30;;
21979;SDS011;11154;48.558;9.234;2022-08-21T01:05:12;3.17;;;1.50;;
21979;SDS011;11154;48.558;9.234;2022-08-21T01:07:15;2.40;;;1.40;;
21979;SDS011;11154;48.558;9.234;2022-08-21T01:09:18;3.40;;;2.03;;
21979;SDS011;11154;48.558;9.234;2022-08-21T01:11:20;2.40;;;2.20;;
21979;SDS011;11154;48.558;9.234;2022-08-21T01:13:22;2.63;;;2.20;;
21979;SDS011;11154;48.558;9.234;2022-08-21T01:15:26;2.20;;;1.83;;
21979;SDS011;11154;48.558;9.234;2022-08-21T01:17:31;4.90;;;1.60;;
21979;SDS011;11154;48.558;9.234;2022-08-21T01:19:34;2.42;;;1.75;;
21979;SDS011;11154;48.558;9.234;2022-08-21T01:21:37;2.17;;;1.45;;
21979;SDS011;11154;48.558;9.234;2022-08-21T01:23:41;2.22;;;1.77;;
21979;SDS011;11154;48.558;9.234;2022-08-21T01:25:44;1.80;;;1.70;;
21979;SDS011;11154;48.558;9.234;2022-08-21T01:27:46;2.63;;;1.60;;
21979;SDS011;11154;48.558;9.234;2022-08-21T01:29:50;2.03;;;1.80;;
21979;SDS011;11154;48.558;9.234;2022-08-21T01:31:56;2.33;;;1.80;;
21979;SDS011;11154;48.558;9.234;2022-08-21T01:33:58;2.70;;;1.63;;
21979;SDS011;11154;48.558;9.234;2022-08-21T01:36:00;3.15;;;1.65;;
21979;SDS011;11154;48.558;9.234;2022-08-21T01:38:03;3.55;;;1.65;;
21979;SDS011;11154;48.558;9.234;2022-08-21T01:40:06;1.60;;;1.50;;
21979;SDS011;11154;48.558;9.234;2022-08-21T01:42:10;2.13;;;1.55;;
21979;SDS011;11154;48.558;9.234;2022-08-21T01:44:12;1.40;;;1.30;;
21979;SDS011;11154;48.558;9.234;2022-08-21T01:46:14;1.70;;;1.60;;
21979;SDS011;11154;48.558;9.234;2022-08-21T01:48:15;2.42;;;1.75;;
21979;SDS011;11154;48.558;9.234;2022-08-21T01:50:18;5.70;;;1.98;;
21979;SDS011;11154;48.558;9.234;2022-08-21T01:52:21;3.22;;;1.70;;
21979;SDS011;11154;48.558;9.234;2022-08-21T01:54:24;1.70;;;1.58;;
21979;SDS011;11154;48.558;9.234;2022-08-21T01:56:26;3.55;;;1.60;;
21979;SDS011;11154;48.558;9.234;2022-08-21T01:58:28;2.97;;;1.70;;
21979;SDS011;11154;48.558;9.234;2022-08-21T02:00:30;2.03;;;1.60;;
21979;SDS011;11154;48.558;9.234;2022-08-21T02:02:32;3.15;;;1.50;;
21979;SDS011;11154;48.558;9.234;2022-08-21T02:04:33;1.52;;;1.42;;
21979;SDS011;11154;48.558;9.234;2022-08-21T02:06:36;2.03;;;1.65;;
21979;SDS011;11154;48.558;9.234;2022-08-21T02:08:37;2.35;;;1.70;;
21979;SDS011;11154;48.558;9.234;2022-08-21T02:10:41;1.88;;;1.30;;
21979;SDS011;11154;48.558;9.234;2022-08-21T02:12:43;3.50;;;1.80;;
21979;SDS011;11154;48.558;9.234;2022-08-21T02:14:44;2.65;;;1.70;;
21979;SDS011;11154;48.558;9.234;2022-08-21T02:16:46;1.77;;;1.67;;
21979;SDS011;11154;48.558;9.234;2022-08-21T02:18:48;1.60;;;1.50;;
21979;SDS011;11154;48.558;9.234;2022-08-21T02:20:50;4.05;;;1.60;;
21979;SDS011;11154;48.558;9.234;2022-08-21T02:22:52;2.05;;;1.45;;
21979;SDS011;11154;48.558;9.234;2022-08-21T02:24:54;1.65;;;1.45;;
21979;SDS011;11154;48.558;9.234;2022-08-21T02:26:57;1.73;;;1.38;;
21979;SDS011;11154;48.558;9.234;2022-08-21T02:28:59;2.20;;;1.55;;
21979;SDS011;11154;48.558;9.234;2022-08-21T02:31:01;2.40;;;1.50;;
21979;SDS011;11154;48.558;9.234;2022-08-21T02:33:03;1.92;;;1.55;;
21979;SDS011;11154;48.558;9.234;2022-08-21T02:35:06;3.08;;;1.90;;
21979;SDS011;11154;48.558;9.234;2022-08-21T02:37:08;2.38;;;1.60;;
21979;SDS011;11154;48.558;9.234;2022-08-21T02:39:10;2.92;;;1.60;;
21979;SDS011;11154;48.558;9.234;2022-08-21T02:41:12;2.05;;;1.50;;
21979;SDS011;11154;48.558;9.234;2022-08-21T02:43:17;2.88;;;1.60;;
21979;SDS011;11154;48.558;9.234;2022-08-21T02:45:20;3.45;;;1.58;;
21979;SDS011;11154;48.558;9.234;2022-08-21T02:47:22;3.28;;;1.60;;
21979;SDS011;11154;48.558;9.234;2022-08-21T02:49:23;4.97;;;1.63;;
21979;SDS011;11154;48.558;9.234;2022-08-21T02:51:25;2.55;;;1.65;;
21979;SDS011;11154;48.558;9.234;2022-08-21T02:53:27;2.25;;;1.50;;
21979;SDS011;11154;48.558;9.234;2022-08-21T02:55:30;1.83;;;1.50;;
21979;SDS011;11154;48.558;9.234;2022-08-21T02:57:33;2.50;;;1.60;;
21979;SDS011;11154;48.558;9.234;2022-08-21T02:59:37;2.70;;;1.45;;
21979;SDS011;11154;48.558;9.234;2022-08-21T03:01:39;2.22;;;1.60;;
21979;SDS011;11154;48.558;9.234;2022-08-21T03:03:41;2.28;;;1.58;;
21979;SDS011;11154;48.558;9.234;2022-08-21T03:05:44;2.03;;;1.30;;
21979;SDS011;11154;48.558;9.234;2022-08-21T03:07:46;2.80;;;1.50;;
21979;SDS011;11154;48.558;9.234;2022-08-21T03:09:48;2.97;;;1.50;;
21979;SDS011;11154;48.558;9.234;2022-08-21T03:11:50;1.88;;;1.42;;
21979;SDS011;11154;48.558;9.234;2022-08-21T03:13:52;3.17;;;1.70;;
21979;SDS011;11154;48.558;9.234;2022-08-21T03:15:55;2.33;;;1.50;;
21979;SDS011;11154;48.558;9.234;2022-08-21T03:17:58;2.00;;;1.60;;
21979;SDS011;11154;48.558;9.234;2022-08-21T03:20:00;1.88;;;1.48;;
21979;SDS011;11154;48.558;9.234;2022-08-21T03:22:03;2.20;;;1.60;;
21979;SDS011;11154;48.558;9.234;2022-08-21T03:24:05;2.55;;;1.67;;
21979;SDS011;11154;48.558;9.234;2022-08-21T03:26:09;4.00;;;2.00;;
21979;SDS011;11154;48.558;9.234;2022-08-21T03:28:12;2.75;;;1.40;;
21979;SDS011;11154;48.558;9.234;2022-08-21T03:30:17;4.72;;;2.20;;
21979;SDS011;11154;48.558;9.234;2022-08-21T03:32:23;7.75;;;4.05;;
21979;SDS011;11154;48.558;9.234;2022-08-21T03:34:25;8.75;;;5.65;;
21979;SDS011;11154;48.558;9.234;2022-08-21T03:36:27;5.22;;;3.75;;
21979;SDS011;11154;48.558;9.234;2022-08-21T03:38:29;5.45;;;2.80;;
21979;SDS011;11154;48.558;9.234;2022-08-21T03:40:32;4.55;;;2.00;;
21979;SDS011;11154;48.558;9.234;2022-08-21T03:42:34;3.03;;;2.03;;
21979;SDS011;11154;48.558;9.234;2022-08-21T03:44:36;3.03;;;1.63;;
21979;SDS011;11154;48.558;9.234;2022-08-21T03:46:39;2.90;;;1.67;;
21979;SDS011;11154;48.558;9.234;2022-08-21T03:48:42;2.70;;;1.67;;
21979;SDS011;11154;48.558;9.234;2022-08-21T03:50:44;2.63;;;1.60;;
21979;SDS011;11154;48.558;9.234;2022-08-21T03:52:47;2.88;;;1.70;;
21979;SDS011;11154;48.558;9.234;2022-08-21T03:54:49;2.50;;;1.65;;
21979;SDS011;11154;48.558;9.234;2022-08-21T03:56:51;1.73;;;1.58;;
21979;SDS011;11154;48.558;9.234;2022-08-21T03:58:52;3.42;;;1.60;;
21979;SDS011;11154;48.558;9.234;2022-08-21T04:00:56;4.82;;;1.70;;
21979;SDS011;11154;48.558;9.234;2022-08-21T04:03:00;2.38;;;1.63;;
21979;SDS011;11154;48.558;9.234;2022-08-21T04:05:04;3.42;;;2.05;;
21979;SDS011;11154;48.558;9.234;2022-08-21T04:07:08;2.30;;;1.67;;
21979;SDS011;11154;48.558;9.234;2022-08-21T04:09:10;3.55;;;1.60;;
21979;SDS011;11154;48.558;9.234;2022-08-21T04:11:11;3.50;;;1.48;;
21979;SDS011;11154;48.558;9.234;2022-08-21T04:13:14;3.97;;;1.70;;
21979;SDS011;11154;48.558;9.234;2022-08-21T04:15:16;2.90;;;1.90;;
21979;SDS011;11154;48.558;9.234;2022-08-21T04:17:18;2.65;;;1.73;;
21979;SDS011;11154;48.558;9.234;2022-08-21T04:19:20;3.08;;;1.50;;
21979;SDS011;11154;48.558;9.234;2022-08-21T04:21:23;4.47;;;1.85;;
21979;SDS011;11154;48.558;9.234;2022-08-21T04:23:25;2.80;;;1.77;;
21979;SDS011;11154;48.558;9.234;2022-08-21T04:25:27;2.60;;;1.60;;
21979;SDS011;11154;48.558;9.234;2022-08-21T04:27:28;2.63;;;1.75;;
21979;SDS011;11154;48.558;9.234;2022-08-21T04:29:30;3.47;;;1.90;;
21979;SDS011;11154;48.558;9.234;2022-08-21T04:31:32;2.47;;;1.85;;
21979;SDS011;11154;48.558;9.234;2022-08-21T04:33:34;2.08;;;1.70;;
21979;SDS011;11154;48.558;9.234;2022-08-21T04:35:36;2.95;;;1.48;;
21979;SDS011;11154;48.558;9.234;2022-08-21T04:37:39;2.60;;;1.88;;
21979;SDS011;11154;48.558;9.234;2022-08-21T04:39:41;4.40;;;1.90;;
21979;SDS011;11154;48.558;9.234;2022-08-21T04:41:43;3.10;;;1.85;;
21979;SDS011;11154;48.558;9.234;2022-08-21T04:43:45;2.60;;;1.80;;
21979;SDS011;11154;48.558;9.234;2022-08-21T04:45:47;3.17;;;1.85;;
21979;SDS011;11154;48.558;9.234;2022-08-21T04:47:50;3.08;;;2.13;;
21979;SDS011;11154;48.558;9.234;2022-08-21T04:49:53;2.65;;;1.88;;
21979;SDS011;11154;48.558;9.234;2022-08-21T04:51:55;2.53;;;1.80;;
21979;SDS011;11154;48.558;9.234;2022-08-21T04:53:59;2.40;;;1.70;;
21979;SDS011;11154;48.558;9.234;2022-08-21T04:56:04;2.95;;;1.98;;
21979;SDS011;11154;48.558;9.234;2022-08-21T04:58:08;3.00;;;1.85;;
21979;SDS011;11154;48.558;9.234;2022-08-21T05:00:13;3.22;;;1.98;;
21979;SDS011;11154;48.558;9.234;2022-08-21T05:02:18;2.38;;;1.73;;
21979;SDS011;11154;48.558;9.234;2022-08-21T05:04:21;1.98;;;1.70;;
21979;SDS011;11154;48.558;9.234;2022-08-21T05:06:26;2.65;;;1.75;;
21979;SDS011;11154;48.558;9.234;2022-08-21T05:08:31;1.90;;;1.77;;
21979;SDS011;11154;48.558;9.234;2022-08-21T05:10:36;1.77;;;1.42;;
21979;SDS011;11154;48.558;9.234;2022-08-21T05:12:38;3.05;;;1.85;;
21979;SDS011;11154;48.558;9.234;2022-08-21T05:14:41;2.40;;;1.65;;
21979;SDS011;11154;48.558;9.234;2022-08-21T05:16:43;3.60;;;2.17;;
21979;SDS011;11154;48.558;9.234;2022-08-21T05:18:45;2.83;;;1.48;;
21979;SDS011;11154;48.558;9.234;2022-08-21T05:20:46;3.42;;;1.80;;
21979;SDS011;11154;48.558;9.234;2022-08-21T05:22:49;2.15;;;1.70;;
21979;SDS011;11154;48.558;9.234;2022-08-21T05:24:50;3.00;;;1.30;;
21979;SDS011;11154;48.558;9.234;2022-08-21T05:26:54;2.13;;;1.60;;
21979;SDS011;11154;48.558;9.234;2022-08-21T05:28:56;2.85;;;1.95;;
21979;SDS011;11154;48.558;9.234;2022-08-21T05:30:57;2.80;;;1.90;;
21979;SDS011;11154;48.558;9.234;2022-08-21T05:33:00;3.08;;;2.05;;
21979;SDS011;11154;48.558;9.234;2022-08-21T05:35:03;3.10;;;2.03;;
21979;SDS011;11154;48.558;9.234;2022-08-21T05:37:06;3.88;;;2.10;;
21979;SDS011;11154;48.558;9.234;2022-08-21T05:39:08;2.90;;;2.10;;
21979;SDS011;11154;48.558;9.234;2022-08-21T05:41:10;3.20;;;1.90;;
21979;SDS011;11154;48.558;9.234;2022-08-21T05:43:13;2.13;;;1.80;;
21979;SDS011;11154;48.558;9.234;2022-08-21T05:45:15;3.17;;;1.80;;
21979;SDS011;11154;48.558;9.234;2022-08-21T05:47:17;2.30;;;1.58;;
21979;SDS011;11154;48.558;9.234;2022-08-21T05:49:19;2.88;;;1.40;;
21979;SDS011;11154;48.558;9.234;2022-08-21T05:51:21;2.42;;;1.50;;
21979;SDS011;11154;48.558;9.234;2022-08-21T05:53:23;2.70;;;1.70;;
21979;SDS011;11154;48.558;9.234;2022-08-21T05:55:26;2.95;;;1.70;;
21979;SDS011;11154;48.558;9.234;2022-08-21T05:57:28;3.38;;;1.85;;
21979;SDS011;11154;48.558;9.234;2022-08-21T05:59:31;2.05;;;1.77;;
21979;SDS011;11154;48.558;9.234;2022-08-21T06:01:32;2.45;;;1.63;;
21979;SDS011;11154;48.558;9.234;2022-08-21T06:03:35;2.13;;;1.85;;
21979;SDS011;11154;48.558;9.234;2022-08-21T06:05:38;2.97;;;2.00;;
21979;SDS011;11154;48.558;9.234;2022-08-21T06:07:40;2.65;;;1.85;;
21979;SDS011;11154;48.558;9.234;2022-08-21T06:09:41;2.58;;;1.73;;
21979;SDS011;11154;48.558;9.234;2022-08-21T06:11:43;2.60;;;1.80;;
21979;SDS011;11154;48.558;9.234;2022-08-21T06:13:45;2.50;;;1.70;;
21979;SDS011;11154;48.558;9.234;2022-08-21T06:15:49;3.28;;;1.83;;
21979;SDS011;11154;48.558;9.234;2022-08-21T06:17:51;2.40;;;1.70;;
21979;SDS011;11154;48.558;9.234;2022-08-21T06:19:54;2.80;;;1.77;;
21979;SDS011;11154;48.558;9.234;2022-08-21T06:21:55;3.22;;;1.95;;
21979;SDS011;11154;48.558;9.234;2022-08-21T06:23:57;3.22;;;1.90;;
21979;SDS011;11154;48.558;9.234;2022-08-21T06:25:59;5.57;;;2.13;;
21979;SDS011;11154;48.558;9.234;2022-08-21T06:28:02;3.03;;;1.95;;
21979;SDS011;11154;48.558;9.234;2022-08-21T06:30:06;2.55;;;1.77;;
21979;SDS011;11154;48.558;9.234;2022-08-21T06:32:11;3.30;;;2.30;;
21979;SDS011;11154;48.558;9.234;2022-08-21T06:34:14;2.40;;;1.98;;
21979;SDS011;11154;48.558;9.234;2022-08-21T06:36:16;2.80;;;2.20;;
21979;SDS011;11154;48.558;9.234;2022-08-21T06:38:18;2.47;;;2.17;;
21979;SDS011;11154;48.558;9.234;2022-08-21T06:40:20;3.17;;;2.47;;
21979;SDS011;11154;48.558;9.234;2022-08-21T06:42:21;2.30;;;2.10;;
21979;SDS011;11154;48.558;9.234;2022-08-21T06:44:23;2.28;;;2.08;;
21979;SDS011;11154;48.558;9.234;2022-08-21T06:46:26;2.85;;;2.13;;
21979;SDS011;11154;48.558;9.234;2022-08-21T06:48:31;4.75;;;2.65;;
21979;SDS011;11154;48.558;9.234;2022-08-21T06:50:34;2.45;;;2.10;;
21979;SDS011;11154;48.558;9.234;2022-08-21T06:52:36;3.05;;;2.30;;
21979;SDS011;11154;48.558;9.234;2022-08-21T06:54:39;2.83;;;2.10;;
21979;SDS011;11154;48.558;9.234;2022-08-21T06:56:41;3.70;;;2.38;;
21979;SDS011;11154;48.558;9.234;2022-08-21T06:58:43;2.45;;;2.22;;
21979;SDS011;11154;48.558;9.234;2022-08-21T07:00:45;3.17;;;2.33;;
21979;SDS011;11154;48.558;9.234;2022-08-21T07:02:49;3.05;;;2.30;;
21979;SDS011;11154;48.558;9.234;2022-08-21T07:04:52;2.63;;;2.17;;
21979;SDS011;11154;48.558;9.234;2022-08-21T07:06:53;4.72;;;2.70;;
21979;SDS011;11154;48.558;9.234;2022-08-21T07:08:55;2.85;;;2.30;;
21979;SDS011;11154;48.558;9.234;2022-08-21T07:10:57;3.13;;;2.22;;
21979;SDS011;11154;48.558;9.234;2022-08-21T07:13:00;2.47;;;2.10;;
21979;SDS011;11154;48.558;9.234;2022-08-21T07:15:02;3.00;;;2.03;;
21979;SDS011;11154;48.558;9.234;2022-08-21T07:17:04;4.72;;;2.25;;
21979;SDS011;11154;48.558;9.234;2022-08-21T07:19:06;2.78;;;2.13;;
21979;SDS011;11154;48.558;9.234;2022-08-21T07:21:09;5.20;;;2.20;;
21979;SDS011;11154;48.558;9.234;2022-08-21T07:23:12;2.30;;;2.10;;
21979;SDS011;11154;48.558;9.234;2022-08-21T07:25:19;3.70;;;2.15;;
21979;SDS011;11154;48.558;9.234;2022-08-21T07:27:21;3.10;;;1.77;;
21979;SDS011;11154;48.558;9.234;2022-08-21T07:29:22;2.95;;;1.88;;
21979;SDS011;11154;48.558;9.234;2022-08-21T07:31:24;2.20;;;1.65;;
21979;SDS011;11154;48.558;9.234;2022-08-21T07:33:28;2.92;;;2.10;;
21979;SDS011;11154;48.558;9.234;2022-08-21T07:35:31;4.57;;;1.98;;
21979;SDS011;11154;48.558;9.234;2022-08-21T07:37:34;2.30;;;1.85;;
21979;SDS011;11154;48.558;9.234;2022-08-21T07:39:36;2.90;;;1.95;;
21979;SDS011;11154;48.558;9.234;2022-08-21T07:41:38;3.05;;;1.77;;
21979;SDS011;11154;48.558;9.234;2022-08-21T07:43:40;2.42;;;1.75;;
21979;SDS011;11154;48.558;9.234;2022-08-21T07:45:42;2.72;;;1.90;;
21979;SDS011;11154;48.558;9.234;2022-08-21T07:47:44;2.72;;;1.70;;
21979;SDS011;11154;48.558;9.234;2022-08-21T07:49:46;1.90;;;1.73;;
21979;SDS011;11154;48.558;9.234;2022-08-21T07:51:48;2.60;;;1.80;;
21979;SDS011;11154;48.558;9.234;2022-08-21T07:53:51;2.40;;;1.83;;
21979;SDS011;11154;48.558;9.234;2022-08-21T07:55:56;2.47;;;1.90;;
21979;SDS011;11154;48.558;9.234;2022-08-21T07:57:58;2.40;;;1.95;;
21979;SDS011;11154;48.558;9.234;2022-08-21T08:00:00;2.85;;;2.00;;
21979;SDS011;11154;48.558;9.234;2022-08-21T08:02:02;4.00;;;1.80;;
21979;SDS011;11154;48.558;9.234;2022-08-21T08:04:04;3.13;;;1.83;;
21979;SDS011;11154;48.558;9.234;2022-08-21T08:06:06;3.22;;;2.20;;
21979;SDS011;11154;48.558;9.234;2022-08-21T08:08:12;2.75;;;2.03;;
21979;SDS011;11154;48.558;9.234;2022-08-21T08:10:15;2.80;;;1.98;;
21979;SDS011;11154;48.558;9.234;2022-08-21T08:12:17;3.85;;;2.20;;
21979;SDS011;11154;48.558;9.234;2022-08-21T08:14:20;2.03;;;1.83;;
21979;SDS011;11154;48.558;9.234;2022-08-21T08:16:22;4.03;;;2.20;;
21979;SDS011;11154;48.558;9.234;2022-08-21T08:18:24;3.38;;;2.13;;
21979;SDS011;11154;48.558;9.234;2022-08-21T08:20:26;4.07;;;2.25;;
21979;SDS011;11154;48.558;9.234;2022-08-21T08:22:29;4.95;;;2.47;;
21979;SDS011;11154;48.558;9.234;2022-08-21T08:24:31;5.15;;;2.25;;
21979;SDS011;11154;48.558;9.234;2022-08-21T08:26:34;7.13;;;2.85;;
21979;SDS011;11154;48.558;9.234;2022-08-21T08:28:35;6.15;;;3.03;;
21979;SDS011;11154;48.558;9.234;2022-08-21T08:30:37;5.50;;;2.75;;
21979;SDS011;11154;48.558;9.234;2022-08-21T08:32:39;5.30;;;2.42;;
21979;SDS011;11154;48.558;9.234;2022-08-21T08:34:41;5.70;;;2.83;;
21979;SDS011;11154;48.558;9.234;2022-08-21T08:36:43;4.65;;;2.70;;
21979;SDS011;11154;48.558;9.234;2022-08-21T08:38:45;6.10;;;3.33;;
21979;SDS011;11154;48.558;9.234;2022-08-21T08:40:50;4.97;;;2.72;;
21979;SDS011;11154;48.558;9.234;2022-08-21T08:43:01;4.25;;;2.88;;
21979;SDS011;11154;48.558;9.234;2022-08-21T08:45:04;6.80;;;2.70;;
21979;SDS011;11154;48.558;9.234;2022-08-21T08:47:07;5.30;;;2.70;;
21979;SDS011;11154;48.558;9.234;2022-08-21T08:49:13;4.65;;;2.92;;
21979;SDS011;11154;48.558;9.234;2022-08-21T08:51:21;8.63;;;3.10;;
21979;SDS011;11154;48.558;9.234;2022-08-21T08:53:28;6.43;;;2.95;;
21979;SDS011;11154;48.558;9.234;2022-08-21T08:55:34;5.63;;;2.65;;
21979;SDS011;11154;48.558;9.234;2022-08-21T08:57:39;4.68;;;2.80;;
21979;SDS011;11154;48.558;9.234;2022-08-21T08:59:47;5.47;;;2.95;;
21979;SDS011;11154;48.558;9.234;2022-08-21T09:01:52;4.30;;;2.70;;
21979;SDS011;11154;48.558;9.234;2022-08-21T09:03:54;4.70;;;2.78;;
21979;SDS011;11154;48.558;9.234;2022-08-21T09:05:57;7.10;;;3.22;;
21979;SDS011;11154;48.558;9.234;2022-08-21T09:08:15;3.90;;;2.67;;
21979;SDS011;11154;48.558;9.234;2022-08-21T09:10:30;6.88;;;3.30;;
21979;SDS011;11154;48.558;9.234;2022-08-21T09:12:46;5.97;;;2.80;;
21979;SDS011;11154;48.558;9.234;2022-08-21T09:14:57;4.18;;;2.58;;
21979;SDS011;11154;48.558;9.234;2022-08-21T09:17:10;3.63;;;2.50;;
21979;SDS011;11154;48.558;9.234;2022-08-21T09:19:24;5.88;;;3.00;;
21979;SDS011;11154;48.558;9.234;2022-08-21T09:21:47;4.57;;;2.30;;
21979;SDS011;11154;48.558;9.234;2022-08-21T09:23:55;4.50;;;2.58;;
21979;SDS011;11154;48.558;9.234;2022-08-21T09:26:02;4.57;;;2.40;;
21979;SDS011;11154;48.558;9.234;2022-08-21T09:28:08;5.88;;;2.65;;
21979;SDS011;11154;48.558;9.234;2022-08-21T09:30:14;5.38;;;2.70;;
21979;SDS011;11154;48.558;9.234;2022-08-21T09:32:18;4.63;;;2.58;;
21979;SDS011;11154;48.558;9.234;2022-08-21T09:34:25;5.47;;;2.58;;
21979;SDS011;11154;48.558;9.234;2022-08-21T09:36:33;5.50;;;2.50;;
21979;SDS011;11154;48.558;9.234;2022-08-21T09:38:39;3.67;;;2.38;;
21979;SDS011;11154;48.558;9.234;2022-08-21T09:40:42;3.65;;;2.40;;
21979;SDS011;11154;48.558;9.234;2022-08-21T09:42:53;5.65;;;2.55;;
21979;SDS011;11154;48.558;9.234;2022-08-21T09:45:07;4.53;;;2.40;;
21979;SDS011;11154;48.558;9.234;2022-08-21T09:47:18;5.80;;;2.40;;
21979;SDS011;11154;48.558;9.234;2022-08-21T09:49:27;3.85;;;2.40;;
21979;SDS011;11154;48.558;9.234;2022-08-21T09:51:30;5.77;;;2.50;;
21979;SDS011;11154;48.558;9.234;2022-08-21T09:53:34;5.30;;;2.50;;
21979;SDS011;11154;48.558;9.234;2022-08-21T09:55:38;5.22;;;2.40;;
21979;SDS011;11154;48.558;9.234;2022-08-21T09:57:57;6.32;;;2.60;;
21979;SDS011;11154;48.558;9.234;2022-08-21T10:00:07;4.35;;;2.53;;
21979;SDS011;11154;48.558;9.234;2022-08-21T10:02:26;6.45;;;2.72;;
21979;SDS011;11154;48.558;9.234;2022-08-21T10:04:30;3.95;;;2.60;;
21979;SDS011;11154;48.558;9.234;2022-08-21T10:06:34;6.15;;;3.00;;
21979;SDS011;11154;48.558;9.234;2022-08-21T10:08:37;6.28;;;2.53;;
21979;SDS011;11154;48.558;9.234;2022-08-21T10:10:40;6.15;;;2.53;;
21979;SDS011;11154;48.558;9.234;2022-08-21T10:12:45;6.68;;;2.78;;
21979;SDS011;11154;48.558;9.234;2022-08-21T10:15:00;6.35;;;2.63;;
21979;SDS011;11154;48.558;9.234;2022-08-21T10:17:14;4.18;;;2.22;;
21979;SDS011;11154;48.558;9.234;2022-08-21T10:19:29;5.05;;;2.17;;
21979;SDS011;11154;48.558;9.234;2022-08-21T10:21:38;3.45;;;2.22;;
21979;SDS011;11154;48.558;9.234;2022-08-21T10:23:51;4.97;;;2.40;;
21979;SDS011;11154;48.558;9.234;2022-08-21T10:26:03;5.00;;;2.58;;
21979;SDS011;11154;48.558;9.234;2022-08-21T10:28:10;3.22;;;2.17;;
21979;SDS011;11154;48.558;9.234;2022-08-21T10:30:21;5.38;;;2.63;;
21979;SDS011;11154;48.558;9.234;2022-08-21T10:32:37;3.03;;;2.20;;
21979;SDS011;11154;48.558;9.234;2022-08-21T10:34:54;3.63;;;2.00;;
21979;SDS011;11154;48.558;9.234;2022-08-21T10:37:03;4.82;;;2.22;;
21979;SDS011;11154;48.558;9.234;2022-08-21T10:39:17;3.13;;;1.70;;
21979;SDS011;11154;48.558;9.234;2022-08-21T10:41:28;3.28;;;2.13;;
21979;SDS011;11154;48.558;9.234;2022-08-21T10:43:44;4.00;;;2.15;;
21979;SDS011;11154;48.558;9.234;2022-08-21T10:45:55;3.22;;;2.15;;
21979;SDS011;11154;48.558;9.234;2022-08-21T10:48:04;5.25;;;2.20;;
21979;SDS011;11154;48.558;9.234;2022-08-21T10:50:10;3.67;;;2.08;;
21979;SDS011;11154;48.558;9.234;2022-08-21T10:52:32;4.53;;;2.17;;
21979;SDS011;11154;48.558;9.234;2022-08-21T10:54:49;3.38;;;2.13;;
21979;SDS011;11154;48.558;9.234;2022-08-21T10:56:55;3.90;;;2.28;;
21979;SDS011;11154;48.558;9.234;2022-08-21T10:59:05;3.50;;;1.83;;
21979;SDS011;11154;48.558;9.234;2022-08-21T11:01:27;5.13;;;2.30;;
21979;SDS011;11154;48.558;9.234;2022-08-21T11:03:33;4.65;;;2.10;;
21979;SDS011;11154;48.558;9.234;2022-08-21T11:05:42;3.55;;;1.95;;
21979;SDS011;11154;48.558;9.234;2022-08-21T11:07:51;3.97;;;2.05;;
21979;SDS011;11154;48.558;9.234;2022-08-21T11:09:56;2.83;;;1.70;;
21979;SDS011;11154;48.558;9.234;2022-08-21T11:12:03;6.95;;;2.25;;
21979;SDS011;11154;48.558;9.234;2022-08-21T11:14:13;3.63;;;1.65;;
21979;SDS011;11154;48.558;9.234;2022-08-21T11:16:26;4.50;;;1.80;;
21979;SDS011;11154;48.558;9.234;2022-08-21T11:18:34;3.70;;;2.10;;
21979;SDS011;11154;48.558;9.234;2022-08-21T11:20:43;4.95;;;2.10;;
21979;SDS011;11154;48.558;9.234;2022-08-21T11:22:52;4.38;;;2.00;;
21979;SDS011;11154;48.558;9.234;2022-08-21T11:24:59;3.28;;;1.92;;
21979;SDS011;11154;48.558;9.234;2022-08-21T11:27:09;2.92;;;1.65;;
21979;SDS011;11154;48.558;9.234;2022-08-21T11:29:19;5.43;;;1.83;;
21979;SDS011;11154;48.558;9.234;2022-08-21T11:31:31;3.42;;;1.60;;
21979;SDS011;11154;48.558;9.234;2022-08-21T11:33:47;4.63;;;2.10;;
21979;SDS011;11154;48.558;9.234;2022-08-21T11:36:06;3.83;;;1.90;;
21979;SDS011;11154;48.558;9.234;2022-08-21T11:38:20;3.70;;;1.83;;
21979;SDS011;11154;48.558;9.234;2022-08-21T11:40:33;4.35;;;2.03;;
21979;SDS011;11154;48.558;9.234;2022-08-21T11:42:42;2.25;;;1.80;;
21979;SDS011;11154;48.558;9.234;2022-08-21T11:44:52;4.85;;;1.92;;
21979;SDS011;11154;48.558;9.234;2022-08-21T11:47:04;4.53;;;1.98;;
21979;SDS011;11154;48.558;9.234;2022-08-21T11:49:23;6.03;;;2.00;;
21979;SDS011;11154;48.558;9.234;2022-08-21T11:51:38;4.05;;;2.22;;
21979;SDS011;11154;48.558;9.234;2022-08-21T11:53:46;3.33;;;2.08;;
21979;SDS011;11154;48.558;9.234;2022-08-21T11:55:55;3.17;;;2.00;;
21979;SDS011;11154;48.558;9.234;2022-08-21T11:58:07;5.20;;;2.05;;
21979;SDS011;11154;48.558;9.234;2022-08-21T12:00:13;3.65;;;1.92;;
21979;SDS011;11154;48.558;9.234;2022-08-21T12:02:21;4.75;;;2.08;;
21979;SDS011;11154;48.558;9.234;2022-08-21T12:04:26;3.13;;;2.00;;
21979;SDS011;11154;48.558;9.234;2022-08-21T12:06:31;3.25;;;1.80;;
21979;SDS011;11154;48.558;9.234;2022-08-21T12:08:37;3.45;;;1.73;;
21979;SDS011;11154;48.558;9.234;2022-08-21T12:10:41;2.88;;;1.70;;
21979;SDS011;11154;48.558;9.234;2022-08-21T12:12:48;4.40;;;1.95;;
21979;SDS011;11154;48.558;9.234;2022-08-21T12:14:51;3.45;;;1.60;;
21979;SDS011;11154;48.558;9.234;2022-08-21T12:17:05;7.22;;;2.50;;
21979;SDS011;11154;48.558;9.234;2022-08-21T12:19:09;2.72;;;1.85;;
21979;SDS011;11154;48.558;9.234;2022-08-21T12:21:22;4.65;;;2.00;;
21979;SDS011;11154;48.558;9.234;2022-08-21T12:23:28;3.58;;;1.70;;
21979;SDS011;11154;48.558;9.234;2022-08-21T12:25:37;3.70;;;1.80;;
21979;SDS011;11154;48.558;9.234;2022-08-21T12:27:44;2.45;;;1.73;;
21979;SDS011;11154;48.558;9.234;2022-08-21T12:29:48;3.20;;;1.80;;
21979;SDS011;11154;48.558;9.234;2022-08-21T12:31:54;3.42;;;1.85;;